sensor_id;sensor_type;location;lat;lon;timestamp;P1;durP1;ratioP1;P2;durP2;ratioP2
59052;SDS011;44843;44.728;10.396;2022-11-04T00:01:03;96.45;;;39.55;;
59052;SDS011;44843;44.728;10.396;2022-11-04T00:03:29;102.32;;;40.38;;
59052;SDS011;44843;44.728;10.396;2022-11-04T00:05:54;94.78;;;38.40;;
59052;SDS011;44843;44.728;10.396;2022-11-04T00:08:20;92.93;;;39.42;;
59052;SDS011;44843;44.728;10.396;2022-11-04T00:10:52;101.72;;;40.38;;
59052;SDS011;44843;44.728;10.396;2022-11-04T00:13:37;97.20;;;39.45;;
59052;SDS011;44843;44.728;10.396;2022-11-04T00:16:02;92.57;;;38.92;;
59052;SDS011;44843;44.728;10.396;2022-11-04T00:18:46;103.60;;;40.00;;
59052;SDS011;44843;44.728;10.396;2022-11-04T00:21:11;100.88;;;39.42;;
59052;SDS011;44843;44.728;10.396;2022-11-04T00:23:55;95.45;;;40.20;;
59052;SDS011;44843;44.728;10.396;2022-11-04T00:26:39;97.07;;;39.55;;
59052;SDS011;44843;44.728;10.396;2022-11-04T00:29:23;92.55;;;39.90;;
59052;SDS011;44843;44.728;10.396;2022-11-04T00:31:49;89.93;;;37.50;;
59052;SDS011;44843;44.728;10.396;2022-11-04T00:34:33;97.10;;;38.60;;
59052;SDS011;44843;44.728;10.396;2022-11-04T00:36:58;90.25;;;38.35;;
59052;SDS011;44843;44.728;10.396;2022-11-04T00:39:24;91.93;;;38.22;;
59052;SDS011;44843;44.728;10.396;2022-11-04T00:41:49;90.47;;;37.20;;
59052;SDS011;44843;44.728;10.396;2022-11-04T00:44:14;92.78;;;39.25;;
59052;SDS011;44843;44.728;10.396;2022-11-04T00:46:40;92.93;;;38.42;;
59052;SDS011;44843;44.728;10.396;2022-11-04T00:49:05;86.53;;;37.78;;
59052;SDS011;44843;44.728;10.396;2022-11-04T00:51:31;92.03;;;39.28;;
59052;SDS011;44843;44.728;10.396;2022-11-04T00:53:56;97.40;;;38.00;;
59052;SDS011;44843;44.728;10.396;2022-11-04T00:56:24;95.40;;;39.10;;
59052;SDS011;44843;44.728;10.396;2022-11-04T00:58:49;95.60;;;39.25;;
59052;SDS011;44843;44.728;10.396;2022-11-04T01:01:15;94.07;;;38.78;;
59052;SDS011;44843;44.728;10.396;2022-11-04T01:03:42;96.78;;;39.45;;
59052;SDS011;44843;44.728;10.396;2022-11-04T01:06:08;97.85;;;40.17;;
59052;SDS011;44843;44.728;10.396;2022-11-04T01:08:33;89.90;;;37.13;;
59052;SDS011;44843;44.728;10.396;2022-11-04T01:11:03;87.60;;;36.55;;
59052;SDS011;44843;44.728;10.396;2022-11-04T01:13:29;87.82;;;36.22;;
59052;SDS011;44843;44.728;10.396;2022-11-04T01:15:58;88.00;;;38.08;;
59052;SDS011;44843;44.728;10.396;2022-11-04T01:18:24;87.60;;;37.65;;
59052;SDS011;44843;44.728;10.396;2022-11-04T01:20:50;90.22;;;37.63;;
59052;SDS011;44843;44.728;10.396;2022-11-04T01:23:16;89.47;;;37.40;;
59052;SDS011;44843;44.728;10.396;2022-11-04T01:25:41;77.90;;;35.35;;
59052;SDS011;44843;44.728;10.396;2022-11-04T01:28:06;83.63;;;36.00;;
59052;SDS011;44843;44.728;10.396;2022-11-04T01:30:32;79.00;;;35.38;;
59052;SDS011;44843;44.728;10.396;2022-11-04T01:32:57;97.28;;;38.63;;
59052;SDS011;44843;44.728;10.396;2022-11-04T01:35:23;78.57;;;33.92;;
59052;SDS011;44843;44.728;10.396;2022-11-04T01:37:48;80.40;;;34.53;;
59052;SDS011;44843;44.728;10.396;2022-11-04T01:40:13;92.13;;;38.15;;
59052;SDS011;44843;44.728;10.396;2022-11-04T01:42:39;91.57;;;36.53;;
59052;SDS011;44843;44.728;10.396;2022-11-04T01:45:04;98.63;;;37.88;;
59052;SDS011;44843;44.728;10.396;2022-11-04T01:50:07;96.25;;;36.60;;
59052;SDS011;44843;44.728;10.396;2022-11-04T01:55:11;95.47;;;35.40;;
59052;SDS011;44843;44.728;10.396;2022-11-04T01:57:41;92.55;;;34.95;;
59052;SDS011;44843;44.728;10.396;2022-11-04T02:00:09;101.05;;;36.03;;
59052;SDS011;44843;44.728;10.396;2022-11-04T02:02:37;91.82;;;33.95;;
59052;SDS011;44843;44.728;10.396;2022-11-04T02:05:11;101.18;;;33.92;;
59052;SDS011;44843;44.728;10.396;2022-11-04T02:07:36;87.03;;;34.63;;
59052;SDS011;44843;44.728;10.396;2022-11-04T02:10:02;96.88;;;34.83;;
59052;SDS011;44843;44.728;10.396;2022-11-04T02:12:27;97.60;;;36.63;;
59052;SDS011;44843;44.728;10.396;2022-11-04T02:15:11;100.47;;;36.78;;
59052;SDS011;44843;44.728;10.396;2022-11-04T02:17:40;95.63;;;35.72;;
59052;SDS011;44843;44.728;10.396;2022-11-04T02:20:36;91.05;;;32.90;;
59052;SDS011;44843;44.728;10.396;2022-11-04T02:31:31;97.85;;;34.80;;
59052;SDS011;44843;44.728;10.396;2022-11-04T02:34:23;98.70;;;36.42;;
59052;SDS011;44843;44.728;10.396;2022-11-04T02:36:57;102.82;;;37.42;;
59052;SDS011;44843;44.728;10.396;2022-11-04T02:39:37;106.65;;;35.85;;
59052;SDS011;44843;44.728;10.396;2022-11-04T02:42:16;100.97;;;37.30;;
59052;SDS011;44843;44.728;10.396;2022-11-04T02:44:57;98.10;;;35.13;;
59052;SDS011;44843;44.728;10.396;2022-11-04T02:47:33;101.20;;;34.42;;
59052;SDS011;44843;44.728;10.396;2022-11-04T02:50:16;91.70;;;33.35;;
59052;SDS011;44843;44.728;10.396;2022-11-04T02:53:08;99.82;;;34.60;;
59052;SDS011;44843;44.728;10.396;2022-11-04T02:55:43;98.75;;;35.95;;
59052;SDS011;44843;44.728;10.396;2022-11-04T02:58:13;98.30;;;35.10;;
59052;SDS011;44843;44.728;10.396;2022-11-04T03:00:45;100.90;;;33.13;;
59052;SDS011;44843;44.728;10.396;2022-11-04T03:03:16;90.20;;;32.95;;
59052;SDS011;44843;44.728;10.396;2022-11-04T03:05:46;92.32;;;31.58;;
59052;SDS011;44843;44.728;10.396;2022-11-04T03:08:34;77.45;;;30.05;;
59052;SDS011;44843;44.728;10.396;2022-11-04T03:11:11;85.60;;;30.90;;
59052;SDS011;44843;44.728;10.396;2022-11-04T03:16:13;78.65;;;32.55;;
59052;SDS011;44843;44.728;10.396;2022-11-04T03:19:00;75.05;;;28.67;;
59052;SDS011;44843;44.728;10.396;2022-11-04T03:21:31;83.35;;;31.60;;
59052;SDS011;44843;44.728;10.396;2022-11-04T03:23:59;84.50;;;31.25;;
59052;SDS011;44843;44.728;10.396;2022-11-04T03:26:27;87.00;;;31.17;;
59052;SDS011;44843;44.728;10.396;2022-11-04T03:29:01;69.13;;;27.88;;
59052;SDS011;44843;44.728;10.396;2022-11-04T03:31:47;83.80;;;29.70;;
59052;SDS011;44843;44.728;10.396;2022-11-04T03:34:22;84.70;;;29.77;;
59052;SDS011;44843;44.728;10.396;2022-11-04T03:36:48;84.47;;;28.77;;
59052;SDS011;44843;44.728;10.396;2022-11-04T03:39:13;80.38;;;30.15;;
59052;SDS011;44843;44.728;10.396;2022-11-04T03:41:49;74.53;;;28.65;;
59052;SDS011;44843;44.728;10.396;2022-11-04T03:44:18;80.43;;;29.60;;
59052;SDS011;44843;44.728;10.396;2022-11-04T03:46:44;76.10;;;28.70;;
59052;SDS011;44843;44.728;10.396;2022-11-04T03:49:09;77.95;;;27.00;;
59052;SDS011;44843;44.728;10.396;2022-11-04T03:51:36;70.93;;;25.60;;
59052;SDS011;44843;44.728;10.396;2022-11-04T03:54:01;70.30;;;26.65;;
59052;SDS011;44843;44.728;10.396;2022-11-04T04:08:36;74.00;;;27.80;;
59052;SDS011;44843;44.728;10.396;2022-11-04T04:13:10;70.72;;;26.60;;
59052;SDS011;44843;44.728;10.396;2022-11-04T04:18:40;67.95;;;25.90;;
59052;SDS011;44843;44.728;10.396;2022-11-04T04:21:14;65.50;;;24.83;;
59052;SDS011;44843;44.728;10.396;2022-11-04T04:23:45;70.50;;;27.60;;
59052;SDS011;44843;44.728;10.396;2022-11-04T04:26:32;73.30;;;27.67;;
59052;SDS011;44843;44.728;10.396;2022-11-04T04:29:17;64.95;;;26.48;;
59052;SDS011;44843;44.728;10.396;2022-11-04T04:31:44;62.22;;;25.40;;
59052;SDS011;44843;44.728;10.396;2022-11-04T04:37:00;64.10;;;26.42;;
59052;SDS011;44843;44.728;10.396;2022-11-04T04:39:31;66.68;;;24.75;;
59052;SDS011;44843;44.728;10.396;2022-11-04T04:42:39;60.63;;;24.80;;
59052;SDS011;44843;44.728;10.396;2022-11-04T04:45:29;63.35;;;25.30;;
59052;SDS011;44843;44.728;10.396;2022-11-04T04:47:57;64.05;;;25.48;;
59052;SDS011;44843;44.728;10.396;2022-11-04T04:50:24;58.22;;;24.60;;
59052;SDS011;44843;44.728;10.396;2022-11-04T04:52:53;54.25;;;23.95;;
59052;SDS011;44843;44.728;10.396;2022-11-04T04:55:20;52.05;;;21.65;;
59052;SDS011;44843;44.728;10.396;2022-11-04T04:57:45;54.55;;;23.42;;
59052;SDS011;44843;44.728;10.396;2022-11-04T05:00:12;47.88;;;21.45;;
59052;SDS011;44843;44.728;10.396;2022-11-04T05:02:40;45.63;;;19.77;;
59052;SDS011;44843;44.728;10.396;2022-11-04T05:05:05;44.40;;;19.25;;
59052;SDS011;44843;44.728;10.396;2022-11-04T05:07:31;44.90;;;20.02;;
59052;SDS011;44843;44.728;10.396;2022-11-04T05:09:57;40.30;;;18.75;;
59052;SDS011;44843;44.728;10.396;2022-11-04T05:12:22;37.33;;;16.55;;
59052;SDS011;44843;44.728;10.396;2022-11-04T05:14:48;38.00;;;17.92;;
59052;SDS011;44843;44.728;10.396;2022-11-04T05:17:13;32.25;;;15.93;;
59052;SDS011;44843;44.728;10.396;2022-11-04T05:19:39;35.33;;;16.67;;
59052;SDS011;44843;44.728;10.396;2022-11-04T05:22:05;31.63;;;15.77;;
59052;SDS011;44843;44.728;10.396;2022-11-04T05:24:30;33.92;;;14.65;;
59052;SDS011;44843;44.728;10.396;2022-11-04T05:26:55;33.22;;;15.27;;
59052;SDS011;44843;44.728;10.396;2022-11-04T05:29:21;32.80;;;16.63;;
59052;SDS011;44843;44.728;10.396;2022-11-04T05:31:46;31.55;;;16.40;;
59052;SDS011;44843;44.728;10.396;2022-11-04T05:34:12;33.65;;;16.10;;
59052;SDS011;44843;44.728;10.396;2022-11-04T05:36:38;29.15;;;14.57;;
59052;SDS011;44843;44.728;10.396;2022-11-04T05:39:04;27.77;;;15.15;;
59052;SDS011;44843;44.728;10.396;2022-11-04T05:41:30;33.72;;;15.55;;
59052;SDS011;44843;44.728;10.396;2022-11-04T05:43:57;29.75;;;14.82;;
59052;SDS011;44843;44.728;10.396;2022-11-04T05:46:24;28.17;;;14.00;;
59052;SDS011;44843;44.728;10.396;2022-11-04T05:48:50;12.88;;;7.15;;
59052;SDS011;44843;44.728;10.396;2022-11-04T05:51:17;5.30;;;3.13;;
59052;SDS011;44843;44.728;10.396;2022-11-04T05:53:44;3.30;;;1.40;;
59052;SDS011;44843;44.728;10.396;2022-11-04T05:56:09;2.33;;;1.10;;
59052;SDS011;44843;44.728;10.396;2022-11-04T05:58:35;2.17;;;0.40;;
59052;SDS011;44843;44.728;10.396;2022-11-04T06:01:10;1.17;;;0.47;;
59052;SDS011;44843;44.728;10.396;2022-11-04T06:03:36;1.80;;;0.50;;
59052;SDS011;44843;44.728;10.396;2022-11-04T06:06:01;3.28;;;0.88;;
59052;SDS011;44843;44.728;10.396;2022-11-04T06:08:27;0.98;;;0.45;;
59052;SDS011;44843;44.728;10.396;2022-11-04T06:10:52;0.63;;;0.22;;
59052;SDS011;44843;44.728;10.396;2022-11-04T06:13:17;0.68;;;0.35;;
59052;SDS011;44843;44.728;10.396;2022-11-04T06:15:43;0.28;;;0.28;;
59052;SDS011;44843;44.728;10.396;2022-11-04T06:18:08;2.63;;;0.47;;
59052;SDS011;44843;44.728;10.396;2022-11-04T06:20:34;1.40;;;0.30;;
59052;SDS011;44843;44.728;10.396;2022-11-04T06:22:59;1.48;;;0.40;;
59052;SDS011;44843;44.728;10.396;2022-11-04T06:25:24;2.28;;;0.40;;
59052;SDS011;44843;44.728;10.396;2022-11-04T06:27:50;1.05;;;0.30;;
59052;SDS011;44843;44.728;10.396;2022-11-04T06:30:15;0.70;;;0.40;;
59052;SDS011;44843;44.728;10.396;2022-11-04T06:32:41;3.70;;;0.50;;
59052;SDS011;44843;44.728;10.396;2022-11-04T06:35:06;0.55;;;0.40;;
59052;SDS011;44843;44.728;10.396;2022-11-04T06:37:32;0.30;;;0.30;;
59052;SDS011;44843;44.728;10.396;2022-11-04T06:39:58;1.55;;;0.40;;
59052;SDS011;44843;44.728;10.396;2022-11-04T06:42:24;2.15;;;0.43;;
59052;SDS011;44843;44.728;10.396;2022-11-04T06:44:50;2.25;;;0.40;;
59052;SDS011;44843;44.728;10.396;2022-11-04T06:47:16;1.17;;;0.30;;
59052;SDS011;44843;44.728;10.396;2022-11-04T06:54:32;0.28;;;0.28;;
59052;SDS011;44843;44.728;10.396;2022-11-04T06:56:58;0.98;;;0.30;;
59052;SDS011;44843;44.728;10.396;2022-11-04T06:59:23;1.38;;;0.43;;
59052;SDS011;44843;44.728;10.396;2022-11-04T07:01:49;1.48;;;0.43;;
59052;SDS011;44843;44.728;10.396;2022-11-04T07:04:15;0.75;;;0.52;;
59052;SDS011;44843;44.728;10.396;2022-11-04T07:06:42;0.63;;;0.25;;
59052;SDS011;44843;44.728;10.396;2022-11-04T07:09:08;1.25;;;0.38;;
59052;SDS011;44843;44.728;10.396;2022-11-04T07:11:35;1.55;;;0.30;;
59052;SDS011;44843;44.728;10.396;2022-11-04T07:14:01;0.50;;;0.40;;
59052;SDS011;44843;44.728;10.396;2022-11-04T07:16:26;2.30;;;0.40;;
59052;SDS011;44843;44.728;10.396;2022-11-04T07:18:55;2.42;;;0.40;;
59052;SDS011;44843;44.728;10.396;2022-11-04T07:21:20;1.15;;;0.40;;
59052;SDS011;44843;44.728;10.396;2022-11-04T07:23:46;0.90;;;0.40;;
59052;SDS011;44843;44.728;10.396;2022-11-04T07:26:12;0.77;;;0.40;;
59052;SDS011;44843;44.728;10.396;2022-11-04T07:28:37;0.63;;;0.60;;
59052;SDS011;44843;44.728;10.396;2022-11-04T07:31:05;0.57;;;0.40;;
59052;SDS011;44843;44.728;10.396;2022-11-04T07:33:32;0.40;;;0.40;;
59052;SDS011;44843;44.728;10.396;2022-11-04T07:35:58;2.80;;;0.55;;
59052;SDS011;44843;44.728;10.396;2022-11-04T07:38:26;0.68;;;0.40;;
59052;SDS011;44843;44.728;10.396;2022-11-04T07:40:52;0.43;;;0.30;;
59052;SDS011;44843;44.728;10.396;2022-11-04T07:43:17;0.55;;;0.47;;
59052;SDS011;44843;44.728;10.396;2022-11-04T07:45:43;0.60;;;0.30;;
59052;SDS011;44843;44.728;10.396;2022-11-04T07:48:08;0.55;;;0.40;;
59052;SDS011;44843;44.728;10.396;2022-11-04T07:50:33;1.25;;;0.40;;
59052;SDS011;44843;44.728;10.396;2022-11-04T07:53:01;0.40;;;0.35;;
59052;SDS011;44843;44.728;10.396;2022-11-04T07:55:27;0.95;;;0.30;;
59052;SDS011;44843;44.728;10.396;2022-11-04T07:57:53;0.50;;;0.30;;
59052;SDS011;44843;44.728;10.396;2022-11-04T08:00:18;0.20;;;0.20;;
59052;SDS011;44843;44.728;10.396;2022-11-04T08:36:42;0.40;;;0.30;;
59052;SDS011;44843;44.728;10.396;2022-11-04T08:39:09;1.30;;;0.50;;
59052;SDS011;44843;44.728;10.396;2022-11-04T08:41:35;0.50;;;0.40;;
59052;SDS011;44843;44.728;10.396;2022-11-04T08:44:02;0.30;;;0.30;;
59052;SDS011;44843;44.728;10.396;2022-11-04T08:46:28;0.55;;;0.30;;
59052;SDS011;44843;44.728;10.396;2022-11-04T10:28:32;0.80;;;0.30;;
59052;SDS011;44843;44.728;10.396;2022-11-04T12:04:19;0.50;;;0.30;;
59052;SDS011;44843;44.728;10.396;2022-11-04T13:36:21;1.42;;;0.60;;
59052;SDS011;44843;44.728;10.396;2022-11-04T13:39:05;0.40;;;0.40;;
59052;SDS011;44843;44.728;10.396;2022-11-04T13:44:25;1.02;;;0.35;;
59052;SDS011;44843;44.728;10.396;2022-11-04T13:46:54;0.50;;;0.50;;
59052;SDS011;44843;44.728;10.396;2022-11-04T13:49:24;1.65;;;0.40;;
59052;SDS011;44843;44.728;10.396;2022-11-04T13:54:38;0.40;;;0.32;;
59052;SDS011;44843;44.728;10.396;2022-11-04T13:57:21;1.25;;;0.47;;
59052;SDS011;44843;44.728;10.396;2022-11-04T14:00:32;0.30;;;0.30;;
59052;SDS011;44843;44.728;10.396;2022-11-04T14:02:47;0.93;;;0.45;;
59052;SDS011;44843;44.728;10.396;2022-11-04T14:16:01;1.73;;;0.40;;
59052;SDS011;44843;44.728;10.396;2022-11-04T14:18:38;1.00;;;0.40;;
59052;SDS011;44843;44.728;10.396;2022-11-04T14:23:33;0.43;;;0.32;;
59052;SDS011;44843;44.728;10.396;2022-11-04T14:26:01;1.38;;;0.40;;
59052;SDS011;44843;44.728;10.396;2022-11-04T14:28:29;0.90;;;0.30;;
59052;SDS011;44843;44.728;10.396;2022-11-04T14:33:34;0.40;;;0.40;;
59052;SDS011;44843;44.728;10.396;2022-11-04T14:38:51;0.65;;;0.30;;
59052;SDS011;44843;44.728;10.396;2022-11-04T14:41:22;0.70;;;0.43;;
59052;SDS011;44843;44.728;10.396;2022-11-04T14:46:40;2.15;;;0.40;;
59052;SDS011;44843;44.728;10.396;2022-11-04T14:49:11;1.08;;;0.50;;
59052;SDS011;44843;44.728;10.396;2022-11-04T14:51:59;0.70;;;0.40;;
59052;SDS011;44843;44.728;10.396;2022-11-04T14:54:25;0.30;;;0.30;;
59052;SDS011;44843;44.728;10.396;2022-11-04T14:57:06;0.85;;;0.40;;
59052;SDS011;44843;44.728;10.396;2022-11-04T14:59:47;2.83;;;0.50;;
59052;SDS011;44843;44.728;10.396;2022-11-04T15:02:14;0.45;;;0.40;;
59052;SDS011;44843;44.728;10.396;2022-11-04T15:04:55;0.40;;;0.40;;
59052;SDS011;44843;44.728;10.396;2022-11-04T15:07:33;0.38;;;0.38;;
59052;SDS011;44843;44.728;10.396;2022-11-04T15:10:03;0.52;;;0.50;;
59052;SDS011;44843;44.728;10.396;2022-11-04T15:12:49;0.50;;;0.40;;
59052;SDS011;44843;44.728;10.396;2022-11-04T15:15:36;2.90;;;0.43;;
59052;SDS011;44843;44.728;10.396;2022-11-04T15:18:16;0.82;;;0.60;;
59052;SDS011;44843;44.728;10.396;2022-11-04T15:20:45;1.50;;;0.40;;
59052;SDS011;44843;44.728;10.396;2022-11-04T15:23:18;2.50;;;0.50;;
59052;SDS011;44843;44.728;10.396;2022-11-04T15:25:50;0.50;;;0.50;;
59052;SDS011;44843;44.728;10.396;2022-11-04T15:28:23;0.95;;;0.57;;
59052;SDS011;44843;44.728;10.396;2022-11-04T15:30:57;5.53;;;0.68;;
59052;SDS011;44843;44.728;10.396;2022-11-04T15:33:25;0.70;;;0.60;;
59052;SDS011;44843;44.728;10.396;2022-11-04T15:35:51;0.75;;;0.50;;
59052;SDS011;44843;44.728;10.396;2022-11-04T15:38:17;0.52;;;0.40;;
59052;SDS011;44843;44.728;10.396;2022-11-04T15:40:43;2.22;;;1.00;;
59052;SDS011;44843;44.728;10.396;2022-11-04T15:43:10;0.90;;;0.80;;
59052;SDS011;44843;44.728;10.396;2022-11-04T15:45:49;2.17;;;0.93;;
59052;SDS011;44843;44.728;10.396;2022-11-04T15:56:47;0.90;;;0.82;;
59052;SDS011;44843;44.728;10.396;2022-11-04T15:59:27;1.45;;;0.70;;
59052;SDS011;44843;44.728;10.396;2022-11-04T16:01:55;2.03;;;0.80;;
59052;SDS011;44843;44.728;10.396;2022-11-04T16:04:25;2.42;;;0.90;;
59052;SDS011;44843;44.728;10.396;2022-11-04T16:07:02;5.05;;;3.05;;
59052;SDS011;44843;44.728;10.396;2022-11-04T16:09:47;5.55;;;4.00;;
59052;SDS011;44843;44.728;10.396;2022-11-04T16:12:16;5.30;;;3.95;;
59052;SDS011;44843;44.728;10.396;2022-11-04T16:14:51;3.38;;;3.05;;
59052;SDS011;44843;44.728;10.396;2022-11-04T16:17:18;3.95;;;2.40;;
59052;SDS011;44843;44.728;10.396;2022-11-04T16:19:49;2.88;;;1.58;;
59052;SDS011;44843;44.728;10.396;2022-11-04T16:22:35;2.22;;;1.42;;
59052;SDS011;44843;44.728;10.396;2022-11-04T16:25:03;4.28;;;1.50;;
59052;SDS011;44843;44.728;10.396;2022-11-04T16:27:32;2.38;;;1.40;;
59052;SDS011;44843;44.728;10.396;2022-11-04T16:30:08;2.60;;;1.80;;
59052;SDS011;44843;44.728;10.396;2022-11-04T16:32:53;2.30;;;1.50;;
59052;SDS011;44843;44.728;10.396;2022-11-04T16:35:23;1.60;;;1.25;;
59052;SDS011;44843;44.728;10.396;2022-11-04T16:37:54;1.60;;;1.33;;
59052;SDS011;44843;44.728;10.396;2022-11-04T16:40:21;2.25;;;2.05;;
59052;SDS011;44843;44.728;10.396;2022-11-04T16:42:47;3.40;;;3.10;;
59052;SDS011;44843;44.728;10.396;2022-11-04T16:45:30;3.10;;;2.70;;
59052;SDS011;44843;44.728;10.396;2022-11-04T16:47:58;4.28;;;2.65;;
59052;SDS011;44843;44.728;10.396;2022-11-04T16:50:23;4.80;;;2.28;;
59052;SDS011;44843;44.728;10.396;2022-11-04T16:52:50;3.88;;;2.08;;
59052;SDS011;44843;44.728;10.396;2022-11-04T16:55:16;3.50;;;2.00;;
59052;SDS011;44843;44.728;10.396;2022-11-04T16:57:43;4.43;;;1.40;;
59052;SDS011;44843;44.728;10.396;2022-11-04T17:00:16;2.38;;;1.48;;
59052;SDS011;44843;44.728;10.396;2022-11-04T17:02:46;1.33;;;1.10;;
59052;SDS011;44843;44.728;10.396;2022-11-04T17:05:12;2.63;;;1.30;;
59052;SDS011;44843;44.728;10.396;2022-11-04T17:07:37;1.85;;;1.30;;
59052;SDS011;44843;44.728;10.396;2022-11-04T17:10:04;1.52;;;1.20;;
59052;SDS011;44843;44.728;10.396;2022-11-04T17:12:41;2.58;;;1.20;;
59052;SDS011;44843;44.728;10.396;2022-11-04T17:15:07;1.92;;;1.67;;
59052;SDS011;44843;44.728;10.396;2022-11-04T17:17:33;3.30;;;1.95;;
59052;SDS011;44843;44.728;10.396;2022-11-04T17:19:58;5.10;;;2.13;;
59052;SDS011;44843;44.728;10.396;2022-11-04T17:22:23;2.55;;;2.17;;
59052;SDS011;44843;44.728;10.396;2022-11-04T17:24:49;6.15;;;3.50;;
59052;SDS011;44843;44.728;10.396;2022-11-04T17:27:14;12.32;;;6.60;;
59052;SDS011;44843;44.728;10.396;2022-11-04T17:29:40;5.32;;;4.55;;
59052;SDS011;44843;44.728;10.396;2022-11-04T17:32:05;8.02;;;4.80;;
59052;SDS011;44843;44.728;10.396;2022-11-04T17:34:30;4.97;;;2.60;;
59052;SDS011;44843;44.728;10.396;2022-11-04T17:36:56;4.95;;;2.15;;
59052;SDS011;44843;44.728;10.396;2022-11-04T17:39:21;4.97;;;2.63;;
59052;SDS011;44843;44.728;10.396;2022-11-04T17:41:47;3.17;;;2.20;;
59052;SDS011;44843;44.728;10.396;2022-11-04T17:44:31;2.72;;;1.98;;
59052;SDS011;44843;44.728;10.396;2022-11-04T17:46:56;3.72;;;2.17;;
59052;SDS011;44843;44.728;10.396;2022-11-04T17:49:24;2.45;;;1.80;;
59052;SDS011;44843;44.728;10.396;2022-11-04T17:51:50;4.10;;;2.00;;
59052;SDS011;44843;44.728;10.396;2022-11-04T17:54:18;5.03;;;2.10;;
59052;SDS011;44843;44.728;10.396;2022-11-04T17:56:44;2.45;;;1.88;;
59052;SDS011;44843;44.728;10.396;2022-11-04T17:59:10;2.92;;;1.90;;
59052;SDS011;44843;44.728;10.396;2022-11-04T18:01:37;3.15;;;2.47;;
59052;SDS011;44843;44.728;10.396;2022-11-04T18:04:03;3.80;;;2.85;;
59052;SDS011;44843;44.728;10.396;2022-11-04T18:06:30;3.72;;;2.58;;
59052;SDS011;44843;44.728;10.396;2022-11-04T18:08:57;6.95;;;2.97;;
59052;SDS011;44843;44.728;10.396;2022-11-04T18:11:24;22.80;;;11.75;;
59052;SDS011;44843;44.728;10.396;2022-11-04T18:14:09;28.63;;;13.80;;
59052;SDS011;44843;44.728;10.396;2022-11-04T18:16:37;26.83;;;14.43;;
59052;SDS011;44843;44.728;10.396;2022-11-04T18:19:04;27.83;;;16.55;;
59052;SDS011;44843;44.728;10.396;2022-11-04T18:21:29;29.88;;;16.13;;
59052;SDS011;44843;44.728;10.396;2022-11-04T18:23:56;35.28;;;14.75;;
59052;SDS011;44843;44.728;10.396;2022-11-04T18:26:22;23.30;;;10.27;;
59052;SDS011;44843;44.728;10.396;2022-11-04T18:28:48;10.80;;;6.35;;
59052;SDS011;44843;44.728;10.396;2022-11-04T18:31:18;6.75;;;3.35;;
59052;SDS011;44843;44.728;10.396;2022-11-04T18:33:50;9.68;;;5.57;;
59052;SDS011;44843;44.728;10.396;2022-11-04T18:36:16;9.80;;;5.97;;
59052;SDS011;44843;44.728;10.396;2022-11-04T18:38:41;9.88;;;6.18;;
59052;SDS011;44843;44.728;10.396;2022-11-04T18:41:07;7.22;;;4.97;;
59052;SDS011;44843;44.728;10.396;2022-11-04T18:43:32;9.82;;;3.97;;
59052;SDS011;44843;44.728;10.396;2022-11-04T18:45:58;7.00;;;3.28;;
59052;SDS011;44843;44.728;10.396;2022-11-04T18:48:23;5.95;;;3.40;;
59052;SDS011;44843;44.728;10.396;2022-11-04T18:50:48;4.43;;;2.80;;
59052;SDS011;44843;44.728;10.396;2022-11-04T18:53:14;4.43;;;2.85;;
59052;SDS011;44843;44.728;10.396;2022-11-04T18:55:40;6.90;;;3.42;;
59052;SDS011;44843;44.728;10.396;2022-11-04T18:58:05;9.27;;;3.60;;
59052;SDS011;44843;44.728;10.396;2022-11-04T19:00:31;6.93;;;4.35;;
59052;SDS011;44843;44.728;10.396;2022-11-04T19:02:57;13.65;;;5.97;;
59052;SDS011;44843;44.728;10.396;2022-11-04T19:05:22;17.95;;;6.43;;
59052;SDS011;44843;44.728;10.396;2022-11-04T19:07:48;15.35;;;7.13;;
59052;SDS011;44843;44.728;10.396;2022-11-04T19:10:13;15.75;;;7.28;;
59052;SDS011;44843;44.728;10.396;2022-11-04T19:12:39;19.13;;;7.20;;
59052;SDS011;44843;44.728;10.396;2022-11-04T19:17:48;14.75;;;6.50;;
59052;SDS011;44843;44.728;10.396;2022-11-04T19:20:14;9.27;;;5.80;;
59052;SDS011;44843;44.728;10.396;2022-11-04T19:22:40;9.00;;;4.55;;
59052;SDS011;44843;44.728;10.396;2022-11-04T19:25:06;8.90;;;4.00;;
59052;SDS011;44843;44.728;10.396;2022-11-04T19:27:32;11.07;;;4.88;;
59052;SDS011;44843;44.728;10.396;2022-11-04T19:29:57;8.48;;;4.15;;
59052;SDS011;44843;44.728;10.396;2022-11-04T19:32:23;8.95;;;3.88;;
59052;SDS011;44843;44.728;10.396;2022-11-04T19:34:48;8.75;;;3.97;;
59052;SDS011;44843;44.728;10.396;2022-11-04T19:37:14;6.82;;;3.72;;
59052;SDS011;44843;44.728;10.396;2022-11-04T19:39:40;7.80;;;3.92;;
59052;SDS011;44843;44.728;10.396;2022-11-04T19:42:05;18.15;;;9.40;;
59052;SDS011;44843;44.728;10.396;2022-11-04T19:44:50;17.30;;;7.47;;
59052;SDS011;44843;44.728;10.396;2022-11-04T19:47:15;8.52;;;4.10;;
59052;SDS011;44843;44.728;10.396;2022-11-04T21:27:07;3.83;;;2.60;;
59052;SDS011;44843;44.728;10.396;2022-11-04T21:29:32;6.80;;;2.28;;
59052;SDS011;44843;44.728;10.396;2022-11-04T21:31:58;5.88;;;2.35;;
59052;SDS011;44843;44.728;10.396;2022-11-04T21:34:23;5.32;;;2.83;;
59052;SDS011;44843;44.728;10.396;2022-11-04T21:36:49;4.47;;;2.35;;
59052;SDS011;44843;44.728;10.396;2022-11-04T21:39:16;3.35;;;2.30;;
59052;SDS011;44843;44.728;10.396;2022-11-04T21:41:41;15.50;;;6.00;;
59052;SDS011;44843;44.728;10.396;2022-11-04T21:44:08;11.70;;;4.68;;
59052;SDS011;44843;44.728;10.396;2022-11-04T21:46:36;3.42;;;2.45;;
59052;SDS011;44843;44.728;10.396;2022-11-04T21:49:01;3.67;;;2.22;;
59052;SDS011;44843;44.728;10.396;2022-11-04T21:51:29;2.47;;;2.08;;
59052;SDS011;44843;44.728;10.396;2022-11-04T21:53:56;3.65;;;2.20;;
59052;SDS011;44843;44.728;10.396;2022-11-04T21:56:23;3.25;;;1.98;;
59052;SDS011;44843;44.728;10.396;2022-11-04T21:58:51;4.45;;;2.25;;
59052;SDS011;44843;44.728;10.396;2022-11-04T22:01:18;2.72;;;2.30;;
59052;SDS011;44843;44.728;10.396;2022-11-04T22:03:50;4.28;;;2.67;;
59052;SDS011;44843;44.728;10.396;2022-11-04T22:06:17;4.90;;;2.53;;
59052;SDS011;44843;44.728;10.396;2022-11-04T22:08:43;4.10;;;2.35;;
59052;SDS011;44843;44.728;10.396;2022-11-04T22:11:14;3.70;;;2.67;;
59052;SDS011;44843;44.728;10.396;2022-11-04T22:13:42;4.72;;;3.33;;
59052;SDS011;44843;44.728;10.396;2022-11-04T22:18:39;5.25;;;2.90;;
59052;SDS011;44843;44.728;10.396;2022-11-04T22:21:06;4.85;;;3.08;;
59052;SDS011;44843;44.728;10.396;2022-11-04T22:23:34;3.28;;;2.65;;
59052;SDS011;44843;44.728;10.396;2022-11-04T22:26:01;5.30;;;2.83;;
59052;SDS011;44843;44.728;10.396;2022-11-04T22:28:27;6.30;;;3.00;;
59052;SDS011;44843;44.728;10.396;2022-11-04T22:30:53;4.95;;;3.05;;
59052;SDS011;44843;44.728;10.396;2022-11-04T22:33:18;6.18;;;3.03;;
59052;SDS011;44843;44.728;10.396;2022-11-04T22:35:44;5.55;;;2.83;;
59052;SDS011;44843;44.728;10.396;2022-11-04T22:38:11;8.35;;;4.57;;
59052;SDS011;44843;44.728;10.396;2022-11-04T22:40:36;6.15;;;3.42;;
59052;SDS011;44843;44.728;10.396;2022-11-04T22:43:02;3.70;;;2.72;;
59052;SDS011;44843;44.728;10.396;2022-11-04T22:45:28;3.45;;;2.50;;
59052;SDS011;44843;44.728;10.396;2022-11-04T22:47:53;4.30;;;2.63;;
59052;SDS011;44843;44.728;10.396;2022-11-04T22:50:19;3.80;;;2.50;;